createdAt,value
2022-08-29T00:00:18.179Z,8.25
2022-08-29T00:00:40.634Z,6.32
2022-08-29T00:01:03.863Z,5.40
2022-08-29T00:01:27.482Z,6.38
2022-08-29T00:01:49.498Z,5.90
2022-08-29T00:02:11.531Z,6.30
2022-08-29T00:02:33.602Z,5.77
2022-08-29T00:03:00.279Z,6.28
2022-08-29T00:03:22.266Z,5.65
2022-08-29T00:03:44.747Z,6.00
2022-08-29T00:04:07.008Z,5.72
2022-08-29T00:04:30.500Z,6.35
2022-08-29T00:04:53.836Z,6.18
2022-08-29T00:05:18.868Z,5.20
2022-08-29T00:05:42.004Z,5.10
2022-08-29T00:06:04.688Z,5.28
2022-08-29T00:06:26.866Z,6.53
2022-08-29T00:06:49.972Z,6.50
2022-08-29T00:07:12.033Z,5.78
2022-08-29T00:07:34.233Z,5.80
2022-08-29T00:07:56.270Z,6.65
2022-08-29T00:08:18.243Z,8.35
2022-08-29T00:08:40.215Z,8.07
2022-08-29T00:09:02.372Z,6.60
2022-08-29T00:09:24.199Z,5.60
2022-08-29T00:09:46.154Z,6.57
2022-08-29T00:10:09.473Z,6.90
2022-08-29T00:10:32.435Z,7.88
2022-08-29T00:10:54.798Z,4.90
2022-08-29T00:11:16.960Z,5.07
2022-08-29T00:11:39.524Z,5.70
2022-08-29T00:12:07.090Z,7.75
2022-08-29T00:12:29.133Z,8.38
2022-08-29T00:12:51.162Z,6.25
2022-08-29T00:13:14.200Z,5.40
2022-08-29T00:13:37.500Z,4.07
2022-08-29T00:14:00.060Z,7.90
2022-08-29T00:14:23.647Z,9.75
2022-08-29T00:14:45.625Z,5.93
2022-08-29T00:15:09.682Z,5.35
2022-08-29T00:15:32.376Z,5.68
2022-08-29T00:16:10.670Z,6.43
2022-08-29T00:16:32.500Z,5.72
2022-08-29T00:16:54.656Z,6.07
2022-08-29T00:17:16.589Z,6.40
2022-08-29T00:17:38.572Z,6.72
2022-08-29T00:18:01.517Z,5.65
2022-08-29T00:18:23.353Z,7.40
2022-08-29T00:18:45.591Z,7.50
2022-08-29T00:19:07.368Z,6.15
2022-08-29T00:19:29.344Z,5.28
2022-08-29T00:19:51.420Z,6.20
2022-08-29T00:20:18.311Z,6.20
2022-08-29T00:20:40.377Z,6.47
2022-08-29T00:21:04.255Z,6.20
2022-08-29T00:21:26.187Z,6.35
2022-08-29T00:21:47.983Z,7.38
2022-08-29T00:22:09.969Z,6.10
2022-08-29T00:22:32.752Z,5.55
2022-08-29T00:22:56.478Z,5.60
2022-08-29T00:23:20.886Z,6.97
2022-08-29T00:23:45.392Z,6.35
2022-08-29T00:24:07.421Z,7.15
2022-08-29T00:24:29.208Z,6.47
2022-08-29T00:24:51.009Z,5.05
2022-08-29T00:25:15.648Z,6.25
2022-08-29T00:25:37.497Z,5.60
2022-08-29T00:25:59.525Z,6.88
2022-08-29T00:26:21.349Z,6.03
2022-08-29T00:26:43.403Z,7.05
2022-08-29T00:27:05.945Z,7.95
2022-08-29T00:27:27.941Z,7.00
2022-08-29T00:27:49.990Z,6.85
2022-08-29T00:28:12.082Z,5.95
2022-08-29T00:28:33.948Z,6.00
2022-08-29T00:28:55.747Z,6.90
2022-08-29T00:29:17.654Z,7.45
2022-08-29T00:29:39.809Z,6.78
2022-08-29T00:30:02.710Z,6.88
2022-08-29T00:30:25.326Z,7.80
2022-08-29T00:30:47.209Z,6.53
2022-08-29T00:31:09.280Z,8.75
2022-08-29T00:31:31.270Z,10.45
2022-08-29T00:31:55.081Z,7.28
2022-08-29T00:32:16.938Z,8.05
2022-08-29T00:32:39.870Z,8.32
2022-08-29T00:33:01.910Z,7.72
2022-08-29T00:33:24.742Z,7.32
2022-08-29T00:33:47.057Z,8.75
2022-08-29T00:34:08.950Z,9.00
2022-08-29T00:34:30.706Z,6.53
2022-08-29T00:34:52.614Z,6.55
2022-08-29T00:35:18.277Z,8.15
2022-08-29T00:35:41.890Z,7.47
2022-08-29T00:36:05.392Z,6.47
2022-08-29T00:36:30.571Z,7.18
2022-08-29T00:36:53.310Z,6.63
2022-08-29T00:37:15.612Z,9.05
2022-08-29T00:37:37.759Z,8.23
2022-08-29T00:38:00.036Z,8.10
2022-08-29T00:38:22.850Z,8.18
2022-08-29T00:38:49.850Z,9.57
2022-08-29T00:39:11.899Z,7.97
2022-08-29T00:39:33.697Z,7.60
2022-08-29T00:39:56.733Z,6.43
2022-08-29T00:40:23.004Z,7.72
2022-08-29T00:40:51.862Z,7.88
2022-08-29T00:41:14.180Z,6.15
2022-08-29T00:41:36.286Z,7.53
2022-08-29T00:41:58.067Z,8.13
2022-08-29T00:42:19.899Z,11.65
2022-08-29T00:42:42.106Z,9.00
2022-08-29T00:43:05.334Z,6.30
2022-08-29T00:43:31.209Z,5.78
2022-08-29T00:43:53.501Z,5.55
2022-08-29T00:44:16.694Z,7.70
2022-08-29T00:44:38.489Z,9.00
2022-08-29T00:45:05.697Z,9.13
2022-08-29T00:45:27.835Z,6.00
2022-08-29T00:46:08.503Z,6.60
2022-08-29T00:46:54.472Z,6.55
2022-08-29T00:47:23.053Z,6.90
2022-08-29T00:48:08.079Z,9.90
2022-08-29T00:48:30.059Z,9.23
2022-08-29T00:48:59.637Z,7.30
2022-08-29T00:49:43.553Z,9.10
2022-08-29T00:50:08.883Z,10.32
2022-08-29T00:50:57.365Z,5.97
2022-08-29T00:51:20.870Z,7.70
2022-08-29T00:51:42.991Z,7.25
2022-08-29T00:52:18.077Z,7.07
2022-08-29T00:52:44.627Z,12.18
2022-08-29T00:53:12.124Z,7.68
2022-08-29T00:53:38.614Z,6.47
2022-08-29T00:54:04.834Z,5.78
2022-08-29T00:54:28.017Z,7.97
2022-08-29T00:54:52.724Z,7.88
2022-08-29T00:55:22.541Z,8.02
2022-08-29T00:55:50.334Z,7.30
2022-08-29T00:56:16.728Z,7.95
2022-08-29T00:56:40.380Z,7.65
2022-08-29T00:57:02.534Z,7.05
2022-08-29T00:57:26.900Z,6.60
2022-08-29T00:57:55.607Z,8.45
2022-08-29T00:58:30.989Z,6.60
2022-08-29T00:59:13.913Z,8.93
2022-08-29T00:59:41.035Z,6.90
2022-08-29T01:00:06.416Z,7.72
2022-08-29T01:00:28.974Z,8.90
2022-08-29T01:00:51.867Z,9.70
2022-08-29T01:01:13.841Z,9.57
2022-08-29T01:01:36.141Z,9.20
2022-08-29T01:01:59.063Z,7.50
2022-08-29T01:02:21.647Z,8.27
2022-08-29T01:02:44.125Z,7.53
2022-08-29T01:03:06.844Z,7.18
2022-08-29T01:03:33.406Z,8.95
2022-08-29T01:03:55.546Z,9.00
2022-08-29T01:04:24.145Z,8.43
2022-08-29T01:04:46.650Z,7.53
2022-08-29T01:05:11.406Z,9.15
2022-08-29T01:05:33.662Z,7.90
2022-08-29T01:05:55.814Z,6.85
2022-08-29T01:06:18.513Z,6.50
2022-08-29T01:06:41.509Z,6.03
2022-08-29T01:07:03.424Z,7.03
2022-08-29T01:07:25.270Z,6.03
2022-08-29T01:07:48.393Z,6.63
2022-08-29T01:08:10.374Z,7.18
2022-08-29T01:08:32.647Z,7.78
2022-08-29T01:08:57.340Z,8.50
2022-08-29T01:09:21.606Z,9.32
2022-08-29T01:09:46.949Z,7.60
2022-08-29T01:10:13.709Z,6.85
2022-08-29T01:10:54.532Z,6.93
2022-08-29T01:11:36.318Z,8.27
2022-08-29T01:12:16.612Z,7.93
2022-08-29T01:12:38.801Z,6.80
2022-08-29T01:13:01.837Z,6.88
2022-08-29T01:13:29.581Z,6.68
2022-08-29T01:13:53.223Z,8.90
2022-08-29T01:14:18.956Z,10.55
2022-08-29T01:14:51.947Z,7.75
2022-08-29T01:15:13.927Z,7.32
2022-08-29T01:15:37.380Z,7.15
2022-08-29T01:16:00.490Z,7.78
2022-08-29T01:16:25.427Z,12.07
2022-08-29T01:16:48.531Z,7.95
2022-08-29T01:17:11.505Z,8.35
2022-08-29T01:17:37.196Z,7.88
2022-08-29T01:18:00.364Z,6.25
2022-08-29T01:18:23.309Z,8.13
2022-08-29T01:18:48.758Z,8.88
2022-08-29T01:19:45.310Z,8.32
2022-08-29T01:20:32.917Z,7.30
2022-08-29T01:21:13.315Z,8.27
2022-08-29T01:21:59.502Z,8.05
2022-08-29T01:22:43.708Z,7.10
2022-08-29T01:23:27.311Z,11.00
2022-08-29T01:24:12.893Z,10.43
2022-08-29T01:24:42.185Z,8.35
2022-08-29T01:25:09.594Z,7.55
2022-08-29T01:25:38.043Z,8.35
2022-08-29T01:26:02.207Z,6.30
2022-08-29T01:26:28.523Z,7.53
2022-08-29T01:26:50.283Z,7.40
2022-08-29T01:27:14.288Z,8.27
2022-08-29T01:27:40.333Z,7.50
2022-08-29T01:28:09.659Z,9.35
2022-08-29T01:28:35.212Z,8.60
2022-08-29T01:28:57.920Z,9.02
2022-08-29T01:29:19.792Z,6.00
2022-08-29T01:29:41.931Z,7.05
2022-08-29T01:30:04.797Z,7.55
2022-08-29T01:30:28.054Z,7.47
2022-08-29T01:31:00.454Z,8.43
2022-08-29T01:31:55.631Z,10.52
2022-08-29T01:32:07.664Z,8.37
2022-08-29T01:32:29.647Z,9.65
2022-08-29T01:32:51.719Z,6.43
2022-08-29T01:33:13.484Z,6.40
2022-08-29T01:33:49.728Z,7.82
2022-08-29T01:34:12.780Z,10.23
2022-08-29T01:34:34.838Z,7.63
2022-08-29T01:34:56.886Z,7.95
2022-08-29T01:35:18.812Z,9.25
2022-08-29T01:35:41.679Z,10.10
2022-08-29T01:36:05.161Z,9.18
2022-08-29T01:36:33.345Z,7.00
2022-08-29T01:37:01.146Z,7.55
2022-08-29T01:37:23.098Z,8.60
2022-08-29T01:37:45.629Z,9.77
2022-08-29T01:38:07.584Z,9.57
2022-08-29T01:38:29.644Z,7.88
2022-08-29T01:38:52.954Z,8.13
2022-08-29T01:39:14.757Z,6.88
2022-08-29T01:39:40.695Z,7.28
2022-08-29T01:40:02.825Z,10.73
2022-08-29T01:40:29.644Z,7.57
2022-08-29T01:40:51.559Z,10.20
2022-08-29T01:41:14.590Z,7.47
2022-08-29T01:41:41.876Z,9.40
2022-08-29T01:42:17.726Z,7.55
2022-08-29T01:42:39.985Z,8.75
2022-08-29T01:43:01.752Z,9.00
2022-08-29T01:43:24.394Z,7.95
2022-08-29T01:43:49.476Z,10.00
2022-08-29T01:44:15.200Z,10.65
2022-08-29T01:44:38.506Z,8.50
2022-08-29T01:45:02.816Z,7.75
2022-08-29T01:45:25.375Z,8.43
2022-08-29T01:45:47.279Z,7.35
2022-08-29T01:46:11.550Z,7.72
2022-08-29T01:46:34.768Z,7.82
2022-08-29T01:47:02.756Z,7.80
2022-08-29T01:47:27.679Z,7.80
2022-08-29T01:47:49.668Z,7.90
2022-08-29T01:48:11.526Z,8.05
2022-08-29T01:48:33.318Z,7.88
2022-08-29T01:48:55.783Z,8.35
2022-08-29T01:49:19.177Z,7.95
2022-08-29T01:49:41.238Z,8.48
2022-08-29T01:50:05.759Z,7.95
2022-08-29T01:50:27.912Z,5.97
2022-08-29T01:50:49.992Z,7.13
2022-08-29T01:51:15.804Z,8.55
2022-08-29T01:51:38.497Z,7.70
2022-08-29T01:52:02.083Z,8.98
2022-08-29T01:52:24.341Z,9.35
2022-08-29T01:52:46.205Z,8.00
2022-08-29T01:53:08.373Z,7.10
2022-08-29T01:53:30.223Z,7.85
2022-08-29T01:53:53.108Z,7.85
2022-08-29T01:54:15.859Z,7.13
2022-08-29T01:54:37.683Z,8.82
2022-08-29T01:54:59.570Z,7.47
2022-08-29T01:55:21.452Z,8.52
2022-08-29T01:55:43.209Z,7.13
2022-08-29T01:56:18.601Z,7.55
2022-08-29T01:56:46.002Z,7.88
2022-08-29T01:57:12.805Z,7.15
2022-08-29T01:57:38.140Z,9.40
2022-08-29T01:57:59.976Z,8.98
2022-08-29T01:58:22.027Z,8.23
2022-08-29T01:58:45.286Z,9.38
2022-08-29T01:59:09.432Z,9.40
2022-08-29T01:59:32.201Z,7.15
2022-08-29T01:59:54.213Z,8.80
2022-08-29T02:00:18.049Z,10.30
2022-08-29T02:00:41.336Z,10.27
2022-08-29T02:01:03.208Z,9.02
2022-08-29T02:01:29.478Z,8.45
2022-08-29T02:02:18.110Z,9.98
2022-08-29T02:02:41.254Z,7.30
2022-08-29T02:03:03.252Z,6.88
2022-08-29T02:03:25.869Z,9.25
2022-08-29T02:03:47.799Z,8.48
2022-08-29T02:04:09.847Z,7.95
2022-08-29T02:04:32.684Z,8.23
2022-08-29T02:04:58.757Z,7.90
2022-08-29T02:05:23.413Z,9.10
2022-08-29T02:05:47.503Z,8.00
2022-08-29T02:06:10.556Z,8.45
2022-08-29T02:06:32.332Z,7.72
2022-08-29T02:06:55.648Z,8.95
2022-08-29T02:07:20.129Z,6.95
2022-08-29T02:07:42.032Z,7.83
2022-08-29T02:08:04.206Z,8.40
2022-08-29T02:08:27.695Z,7.00
2022-08-29T02:08:49.736Z,8.82
2022-08-29T02:09:12.093Z,9.45
2022-08-29T02:09:34.926Z,9.75
2022-08-29T02:09:59.754Z,9.25
2022-08-29T02:10:21.565Z,8.98
2022-08-29T02:10:43.778Z,9.52
2022-08-29T02:11:09.952Z,9.40
2022-08-29T02:11:32.903Z,8.95
2022-08-29T02:11:56.200Z,8.90
2022-08-29T02:12:18.808Z,8.63
2022-08-29T02:12:40.806Z,9.23
2022-08-29T02:13:02.597Z,9.25
2022-08-29T02:13:24.730Z,7.38
2022-08-29T02:13:53.457Z,9.93
2022-08-29T02:14:19.672Z,6.93
2022-08-29T02:14:42.473Z,6.45
2022-08-29T02:15:06.180Z,8.80
2022-08-29T02:15:28.160Z,8.18
2022-08-29T02:15:50.477Z,8.25
2022-08-29T02:16:13.404Z,6.95
2022-08-29T02:16:35.293Z,6.38
2022-08-29T02:16:57.769Z,5.67
2022-08-29T02:17:19.927Z,7.63
2022-08-29T02:17:41.680Z,6.85
2022-08-29T02:18:03.852Z,9.48
2022-08-29T02:18:25.843Z,9.40
2022-08-29T02:18:48.122Z,8.90
2022-08-29T02:19:10.118Z,9.20
2022-08-29T02:19:33.019Z,8.13
2022-08-29T02:19:54.837Z,7.60
2022-08-29T02:20:16.689Z,8.02
2022-08-29T02:20:38.503Z,8.73
2022-08-29T02:21:00.907Z,8.63
2022-08-29T02:21:25.166Z,8.27
2022-08-29T02:21:47.764Z,8.13
2022-08-29T02:22:10.644Z,8.10
2022-08-29T02:22:32.503Z,9.40
2022-08-29T02:22:54.987Z,7.47
2022-08-29T02:23:30.217Z,7.43
2022-08-29T02:23:53.779Z,8.20
2022-08-29T02:24:26.151Z,6.65
2022-08-29T02:24:48.395Z,9.00
2022-08-29T02:25:29.952Z,9.20
2022-08-29T02:25:51.744Z,8.88
2022-08-29T02:26:13.718Z,9.05
2022-08-29T02:26:37.891Z,8.23
2022-08-29T02:27:00.128Z,8.48
2022-08-29T02:27:22.260Z,8.02
2022-08-29T02:27:44.573Z,7.70
2022-08-29T02:28:06.491Z,7.47
2022-08-29T02:28:28.786Z,8.25
2022-08-29T02:28:51.765Z,10.15
2022-08-29T02:29:13.588Z,10.73
2022-08-29T02:29:37.893Z,7.35
2022-08-29T02:30:00.204Z,7.57
2022-08-29T02:30:24.016Z,9.95
2022-08-29T02:30:49.836Z,8.48
2022-08-29T02:31:14.719Z,9.20
2022-08-29T02:31:38.852Z,6.82
2022-08-29T02:32:01.072Z,8.98
2022-08-29T02:32:22.916Z,8.00
2022-08-29T02:32:44.888Z,8.27
2022-08-29T02:33:07.211Z,9.07
2022-08-29T02:33:29.063Z,8.43
2022-08-29T02:33:52.251Z,8.88
2022-08-29T02:34:14.433Z,8.85
2022-08-29T02:34:36.781Z,6.90
2022-08-29T02:34:58.854Z,9.68
2022-08-29T02:35:20.708Z,8.23
2022-08-29T02:35:43.565Z,8.80
2022-08-29T02:36:07.184Z,9.05
2022-08-29T02:36:29.033Z,7.88
2022-08-29T02:36:52.051Z,7.72
2022-08-29T02:37:14.301Z,10.07
2022-08-29T02:37:36.087Z,8.35
2022-08-29T02:37:58.171Z,8.52
2022-08-29T02:38:20.896Z,8.18
2022-08-29T02:38:42.868Z,7.82
2022-08-29T02:39:05.638Z,8.00
2022-08-29T02:39:27.543Z,8.05
2022-08-29T02:39:49.626Z,8.35
2022-08-29T02:40:11.581Z,7.43
2022-08-29T02:40:33.923Z,8.35
2022-08-29T02:40:55.950Z,9.75
2022-08-29T02:41:17.767Z,10.00
2022-08-29T02:41:39.915Z,8.57
2022-08-29T02:42:06.350Z,9.95
2022-08-29T02:42:28.105Z,10.43
2022-08-29T02:42:51.401Z,9.90
2022-08-29T02:43:13.560Z,9.90
2022-08-29T02:43:37.128Z,10.95
2022-08-29T02:44:00.387Z,8.80
2022-08-29T02:44:23.452Z,8.68
2022-08-29T02:44:45.203Z,8.45
2022-08-29T02:45:07.929Z,9.88
2022-08-29T02:45:30.841Z,11.07
2022-08-29T02:45:53.303Z,8.80
2022-08-29T02:46:20.090Z,9.10
2022-08-29T02:46:41.982Z,8.95
2022-08-29T02:47:04.188Z,7.68
2022-08-29T02:47:26.079Z,8.52
2022-08-29T02:47:48.100Z,8.05
2022-08-29T02:48:12.113Z,10.40
2022-08-29T02:48:34.002Z,9.35
2022-08-29T02:49:01.331Z,8.75
2022-08-29T02:49:24.641Z,7.80
2022-08-29T02:49:46.386Z,8.07
2022-08-29T02:50:10.673Z,9.38
2022-08-29T02:50:32.603Z,10.48
2022-08-29T02:50:56.847Z,9.07
2022-08-29T02:51:21.806Z,8.20
2022-08-29T02:51:43.878Z,9.15
2022-08-29T02:52:08.436Z,10.73
2022-08-29T02:52:34.116Z,8.85
2022-08-29T02:53:01.327Z,8.65
2022-08-29T02:53:27.041Z,8.57
2022-08-29T02:53:48.928Z,8.15
2022-08-29T02:54:12.279Z,10.40
2022-08-29T02:54:35.146Z,9.43
2022-08-29T02:54:57.481Z,10.10
2022-08-29T02:55:21.246Z,8.40
2022-08-29T02:55:43.599Z,10.18
2022-08-29T02:56:05.548Z,10.80
2022-08-29T02:56:31.028Z,9.65
2022-08-29T02:56:52.796Z,8.73
2022-08-29T02:57:14.682Z,9.55
2022-08-29T02:57:36.463Z,9.63
2022-08-29T02:57:59.054Z,8.95
2022-08-29T02:58:22.827Z,9.48
2022-08-29T02:58:44.710Z,10.35
2022-08-29T02:59:07.852Z,11.77
2022-08-29T02:59:29.729Z,11.75
2022-08-29T02:59:51.631Z,10.75
2022-08-29T03:00:18.692Z,8.93
2022-08-29T03:00:41.660Z,9.95
2022-08-29T03:01:04.074Z,11.50
2022-08-29T03:01:26.506Z,8.35
2022-08-29T03:01:48.334Z,9.68
2022-08-29T03:02:10.712Z,8.93
2022-08-29T03:02:32.732Z,9.82
2022-08-29T03:02:56.203Z,10.52
2022-08-29T03:03:18.203Z,9.60
2022-08-29T03:03:40.425Z,9.13
2022-08-29T03:04:02.403Z,11.55
2022-08-29T03:04:24.312Z,10.73
2022-08-29T03:04:46.176Z,9.38
2022-08-29T03:05:08.460Z,8.50
2022-08-29T03:05:34.908Z,9.70
2022-08-29T03:05:57.034Z,10.57
2022-08-29T03:06:19.837Z,10.02
2022-08-29T03:06:41.891Z,9.70
2022-08-29T03:07:05.516Z,9.98
2022-08-29T03:07:27.364Z,10.25
2022-08-29T03:07:51.051Z,10.10
2022-08-29T03:08:16.716Z,9.30
2022-08-29T03:08:39.376Z,10.93
2022-08-29T03:09:01.485Z,8.50
2022-08-29T03:09:23.273Z,8.48
2022-08-29T03:09:46.528Z,8.35
2022-08-29T03:10:09.073Z,9.70
2022-08-29T03:10:31.225Z,8.88
2022-08-29T03:10:53.082Z,9.25
2022-08-29T03:11:16.065Z,11.73
2022-08-29T03:11:38.067Z,10.93
2022-08-29T03:11:59.868Z,9.77
2022-08-29T03:12:21.815Z,10.40
2022-08-29T03:12:43.573Z,9.75
2022-08-29T03:13:05.925Z,10.20
2022-08-29T03:13:27.852Z,11.30
2022-08-29T03:13:49.880Z,12.77
2022-08-29T03:14:14.009Z,8.57
2022-08-29T03:14:38.138Z,10.20
2022-08-29T03:15:00.068Z,9.85
2022-08-29T03:15:23.453Z,8.77
2022-08-29T03:15:45.483Z,10.73
2022-08-29T03:16:08.706Z,9.48
2022-08-29T03:16:32.272Z,9.82
2022-08-29T03:16:54.119Z,12.57
2022-08-29T03:17:16.525Z,10.52
2022-08-29T03:17:38.487Z,9.75
2022-08-29T03:18:01.290Z,10.68
2022-08-29T03:18:23.347Z,10.60
2022-08-29T03:18:45.365Z,9.57
2022-08-29T03:19:08.712Z,9.57
2022-08-29T03:19:30.577Z,9.55
2022-08-29T03:19:59.069Z,10.52
2022-08-29T03:20:24.160Z,10.02
2022-08-29T03:20:46.201Z,9.68
2022-08-29T03:21:20.485Z,10.27
2022-08-29T03:21:45.269Z,10.75
2022-08-29T03:22:09.352Z,10.63
2022-08-29T03:22:31.374Z,9.65
2022-08-29T03:22:54.470Z,10.63
2022-08-29T03:23:17.460Z,8.40
2022-08-29T03:23:40.451Z,11.75
2022-08-29T03:24:02.542Z,10.30
2022-08-29T03:24:27.000Z,10.82
2022-08-29T03:24:49.183Z,9.82
2022-08-29T03:25:12.306Z,10.60
2022-08-29T03:25:34.635Z,13.38
2022-08-29T03:25:57.923Z,11.40
2022-08-29T03:26:19.795Z,10.27
2022-08-29T03:26:41.584Z,9.93
2022-08-29T03:27:04.007Z,11.13
2022-08-29T03:27:25.794Z,11.90
2022-08-29T03:27:47.836Z,11.05
2022-08-29T03:28:09.727Z,10.52
2022-08-29T03:28:31.810Z,11.30
2022-08-29T03:28:54.335Z,11.70
2022-08-29T03:29:16.206Z,11.10
2022-08-29T03:29:38.552Z,14.20
2022-08-29T03:30:00.982Z,14.00
2022-08-29T03:30:24.051Z,10.40
2022-08-29T03:30:46.740Z,11.73
2022-08-29T03:31:08.699Z,12.05
2022-08-29T03:31:30.555Z,10.52
2022-08-29T03:31:52.716Z,12.63
2022-08-29T03:32:14.739Z,12.48
2022-08-29T03:32:37.069Z,11.95
2022-08-29T03:32:58.935Z,9.63
2022-08-29T03:33:20.976Z,8.95
2022-08-29T03:33:42.883Z,10.80
2022-08-29T03:34:05.027Z,10.48
2022-08-29T03:34:28.613Z,11.38
2022-08-29T03:34:50.531Z,12.75
2022-08-29T03:35:13.719Z,10.02
2022-08-29T03:35:35.478Z,10.13
2022-08-29T03:35:57.311Z,10.43
2022-08-29T03:36:19.262Z,10.48
2022-08-29T03:36:42.244Z,12.85
2022-08-29T03:37:04.435Z,12.27
2022-08-29T03:37:27.213Z,11.65
2022-08-29T03:37:50.391Z,10.00
2022-08-29T03:38:12.277Z,10.45
2022-08-29T03:38:35.726Z,10.88
2022-08-29T03:38:57.693Z,12.45
2022-08-29T03:39:20.008Z,10.88
2022-08-29T03:39:41.797Z,11.38
2022-08-29T03:40:08.144Z,10.45
2022-08-29T03:40:30.080Z,10.73
2022-08-29T03:40:51.926Z,11.15
2022-08-29T03:41:25.949Z,12.80
2022-08-29T03:41:47.835Z,13.35
2022-08-29T03:42:10.182Z,10.32
2022-08-29T03:42:31.945Z,9.65
2022-08-29T03:42:54.809Z,10.48
2022-08-29T03:43:16.643Z,10.95
2022-08-29T03:43:40.594Z,10.13
2022-08-29T03:44:02.641Z,10.38
2022-08-29T03:44:24.670Z,10.82
2022-08-29T03:44:46.448Z,10.32
2022-08-29T03:45:11.143Z,11.05
2022-08-29T03:45:32.928Z,11.85
2022-08-29T03:45:54.797Z,10.63
2022-08-29T03:46:16.649Z,10.70
2022-08-29T03:46:39.512Z,12.95
2022-08-29T03:47:01.562Z,11.70
2022-08-29T03:47:23.442Z,12.40
2022-08-29T03:47:45.870Z,10.57
2022-08-29T03:48:07.724Z,9.68
2022-08-29T03:48:29.577Z,10.10
2022-08-29T03:48:51.496Z,9.45
2022-08-29T03:49:13.437Z,10.60
2022-08-29T03:49:36.002Z,10.57
2022-08-29T03:49:58.234Z,10.73
2022-08-29T03:50:20.969Z,13.75
2022-08-29T03:50:43.028Z,13.20
2022-08-29T03:51:04.939Z,12.13
2022-08-29T03:51:29.617Z,10.38
2022-08-29T03:51:51.736Z,9.73
2022-08-29T03:52:14.589Z,11.38
2022-08-29T03:52:36.585Z,11.82
2022-08-29T03:52:59.459Z,11.70
2022-08-29T03:53:21.462Z,10.80
2022-08-29T03:53:43.697Z,14.35
2022-08-29T03:54:07.096Z,11.98
2022-08-29T03:54:29.060Z,11.10
2022-08-29T03:54:50.893Z,11.80
2022-08-29T03:55:13.966Z,11.38
2022-08-29T03:55:35.755Z,12.43
2022-08-29T03:55:57.668Z,14.32
2022-08-29T03:56:19.470Z,13.80
2022-08-29T03:56:41.483Z,13.38
2022-08-29T03:57:08.021Z,12.95
2022-08-29T03:57:33.171Z,12.15
2022-08-29T03:57:56.146Z,11.63
2022-08-29T03:58:18.014Z,10.57
2022-08-29T03:58:39.808Z,12.93
2022-08-29T03:59:01.723Z,13.65
2022-08-29T03:59:24.047Z,14.07
2022-08-29T03:59:46.255Z,16.67
2022-08-29T04:00:12.676Z,10.43
2022-08-29T04:00:35.145Z,11.68
2022-08-29T04:00:58.080Z,12.93
2022-08-29T04:01:22.822Z,11.23
2022-08-29T04:01:47.659Z,12.70
2022-08-29T04:02:10.000Z,14.20
2022-08-29T04:02:32.145Z,13.30
2022-08-29T04:02:55.559Z,12.32
2022-08-29T04:03:20.005Z,11.65
2022-08-29T04:03:43.788Z,12.23
2022-08-29T04:04:06.206Z,11.05
2022-08-29T04:04:47.080Z,12.10
2022-08-29T04:05:09.949Z,12.77
2022-08-29T04:05:31.753Z,11.85
2022-08-29T04:05:55.176Z,12.63
2022-08-29T04:06:17.884Z,12.90
2022-08-29T04:06:39.723Z,11.73
2022-08-29T04:07:05.662Z,13.13
2022-08-29T04:07:27.495Z,14.05
2022-08-29T04:07:52.326Z,12.70
2022-08-29T04:08:14.276Z,12.43
2022-08-29T04:08:38.547Z,13.68
2022-08-29T04:09:00.923Z,13.82
2022-08-29T04:09:22.712Z,13.60
2022-08-29T04:09:44.648Z,13.57
2022-08-29T04:10:08.386Z,12.55
2022-08-29T04:10:37.629Z,11.95
2022-08-29T04:11:00.017Z,13.00
2022-08-29T04:11:24.186Z,13.87
2022-08-29T04:11:46.033Z,13.77
2022-08-29T04:12:10.422Z,13.68
2022-08-29T04:12:32.293Z,13.05
2022-08-29T04:12:55.124Z,12.48
2022-08-29T04:13:17.070Z,13.60
2022-08-29T04:13:38.899Z,13.52
2022-08-29T04:14:00.711Z,13.38
2022-08-29T04:14:23.183Z,14.05
2022-08-29T04:14:45.029Z,13.32
2022-08-29T04:15:07.852Z,13.05
2022-08-29T04:15:32.420Z,12.32
2022-08-29T04:15:54.989Z,13.20
2022-08-29T04:16:22.809Z,14.48
2022-08-29T04:16:48.720Z,13.32
2022-08-29T04:17:11.006Z,14.48
2022-08-29T04:17:33.369Z,14.38
2022-08-29T04:17:58.489Z,13.73
2022-08-29T04:18:21.470Z,14.23
2022-08-29T04:18:43.814Z,13.77
2022-08-29T04:19:05.592Z,14.10
2022-08-29T04:19:31.047Z,15.90
2022-08-29T04:19:52.816Z,12.15
2022-08-29T04:20:15.117Z,13.00
2022-08-29T04:20:41.815Z,11.85
2022-08-29T04:21:05.275Z,14.85
2022-08-29T04:21:27.263Z,15.23
2022-08-29T04:21:49.284Z,14.52
2022-08-29T04:22:11.225Z,12.82
2022-08-29T04:22:36.466Z,13.90
2022-08-29T04:22:59.610Z,14.30
2022-08-29T04:23:21.385Z,15.30
2022-08-29T04:23:45.994Z,14.85
2022-08-29T04:24:09.887Z,12.80
2022-08-29T04:24:33.042Z,14.25
2022-08-29T04:24:55.131Z,14.77
2022-08-29T04:25:18.195Z,13.63
2022-08-29T04:25:42.768Z,13.10
2022-08-29T04:26:35.275Z,14.30
2022-08-29T04:26:57.220Z,13.80
2022-08-29T04:27:19.472Z,13.55
2022-08-29T04:27:42.115Z,13.20
2022-08-29T04:28:10.191Z,13.63
2022-08-29T04:28:32.231Z,13.77
2022-08-29T04:28:54.082Z,11.82
2022-08-29T04:29:16.271Z,14.50
2022-08-29T04:29:38.304Z,16.42
2022-08-29T04:30:00.156Z,14.77
2022-08-29T04:30:25.427Z,16.98
2022-08-29T04:30:51.497Z,14.40
2022-08-29T04:31:19.962Z,14.15
2022-08-29T04:31:43.651Z,13.57
2022-08-29T04:32:05.995Z,15.23
2022-08-29T04:32:27.944Z,17.02
2022-08-29T04:32:50.213Z,15.63
2022-08-29T04:33:12.804Z,12.68
2022-08-29T04:33:44.024Z,13.77
2022-08-29T04:34:07.500Z,18.10
2022-08-29T04:34:29.535Z,12.93
2022-08-29T04:34:55.281Z,14.10
2022-08-29T04:35:17.461Z,14.05
2022-08-29T04:35:39.575Z,20.80
2022-08-29T04:36:01.362Z,14.80
2022-08-29T04:36:23.144Z,12.18
2022-08-29T04:36:47.218Z,15.60
2022-08-29T04:37:09.182Z,13.95
2022-08-29T04:37:31.437Z,17.38
2022-08-29T04:37:54.084Z,16.88
2022-08-29T04:38:16.724Z,15.77
2022-08-29T04:38:38.496Z,16.73
2022-08-29T04:39:00.678Z,16.02
2022-08-29T04:39:22.470Z,15.50
2022-08-29T04:39:44.311Z,20.65
2022-08-29T04:40:08.745Z,18.17
2022-08-29T04:40:30.654Z,16.10
2022-08-29T04:40:52.492Z,14.75
2022-08-29T04:41:14.969Z,15.85
2022-08-29T04:41:37.591Z,20.05
2022-08-29T04:41:59.467Z,18.63
2022-08-29T04:42:21.315Z,15.63
2022-08-29T04:42:44.013Z,14.98
2022-08-29T04:43:06.152Z,15.57
2022-08-29T04:43:28.061Z,16.25
2022-08-29T04:43:49.914Z,17.08
2022-08-29T04:44:12.527Z,15.73
2022-08-29T04:44:34.767Z,16.25
2022-08-29T04:44:57.524Z,14.45
2022-08-29T04:45:21.303Z,15.18
2022-08-29T04:45:43.426Z,13.48
2022-08-29T04:46:05.303Z,14.25
2022-08-29T04:46:31.441Z,15.48
2022-08-29T04:46:53.481Z,16.63
2022-08-29T04:47:15.491Z,18.10
2022-08-29T04:47:38.113Z,19.15
2022-08-29T04:48:03.451Z,15.65
2022-08-29T04:48:26.281Z,16.27
2022-08-29T04:48:48.714Z,16.25
2022-08-29T04:49:10.794Z,15.32
2022-08-29T04:49:32.614Z,15.95
2022-08-29T04:49:55.990Z,16.17
2022-08-29T04:50:21.003Z,17.50
2022-08-29T04:50:42.844Z,16.73
2022-08-29T04:51:05.113Z,17.75
2022-08-29T04:51:27.013Z,16.38
2022-08-29T04:51:52.044Z,16.90
2022-08-29T04:52:14.025Z,21.02
2022-08-29T04:52:36.967Z,18.23
2022-08-29T04:52:58.896Z,19.08
2022-08-29T04:53:20.848Z,18.77
2022-08-29T04:53:42.970Z,16.42
2022-08-29T04:54:06.641Z,15.35
2022-08-29T04:54:28.498Z,16.27
2022-08-29T04:54:50.433Z,16.42
2022-08-29T04:55:12.982Z,17.63
2022-08-29T04:55:34.892Z,16.73
2022-08-29T04:56:16.415Z,18.40
2022-08-29T04:56:38.248Z,18.05
2022-08-29T04:57:06.001Z,20.13
2022-08-29T04:57:28.097Z,16.58
2022-08-29T04:57:52.173Z,17.10
2022-08-29T04:58:14.430Z,18.38
2022-08-29T04:58:39.210Z,17.67
2022-08-29T04:59:01.837Z,18.10
2022-08-29T04:59:24.136Z,19.30
2022-08-29T04:59:46.079Z,20.67
2022-08-29T05:00:14.270Z,17.88
2022-08-29T05:00:36.847Z,17.67
2022-08-29T05:00:58.590Z,17.40
2022-08-29T05:01:40.862Z,16.30
2022-08-29T05:02:04.497Z,17.45
2022-08-29T05:02:27.403Z,17.60
2022-08-29T05:02:49.643Z,18.90
2022-08-29T05:03:11.896Z,17.88
2022-08-29T05:03:35.005Z,19.52
2022-08-29T05:03:57.963Z,18.85
2022-08-29T05:04:19.890Z,17.58
2022-08-29T05:04:41.628Z,20.95
2022-08-29T05:05:04.028Z,16.40
2022-08-29T05:05:26.907Z,17.25
2022-08-29T05:05:59.614Z,18.63
2022-08-29T05:06:22.872Z,17.40
2022-08-29T05:06:44.894Z,18.42
2022-08-29T05:07:06.914Z,18.42
2022-08-29T05:07:28.797Z,17.75
2022-08-29T05:07:50.891Z,17.52
2022-08-29T05:08:12.711Z,18.75
2022-08-29T05:08:39.202Z,18.48
2022-08-29T05:09:01.039Z,18.37
2022-08-29T05:09:23.124Z,19.52
2022-08-29T05:09:44.959Z,18.13
2022-08-29T05:10:10.169Z,17.17
2022-08-29T05:10:32.796Z,16.48
2022-08-29T05:10:57.006Z,17.58
2022-08-29T05:11:22.690Z,17.58
2022-08-29T05:11:45.032Z,16.20
2022-08-29T05:12:10.115Z,16.98
2022-08-29T05:12:33.681Z,16.73
2022-08-29T05:12:55.472Z,15.45
2022-08-29T05:13:17.434Z,16.70
2022-08-29T05:13:39.431Z,16.75